Ana Sayfa
METAR-TAF:

METAR-TAF

Havaalanları :

Kuching Uluslararası Havalimanı

Kuching, Malezya

Enlem: 01-29N, Boylam: 110-20E, yükseklik: 27 m

Güncel hava durumu gözlemi

Rapor saat 20:00 UTC de 24 dakika önce yapıldı.
Rüzgar doğu/güneydoğudan 3 kt, doğu ve güney/güneydoğu arasında değişken
Sıcaklık 26°C
Nem 94%
Basınç 1009 hPa
Görüş mesafesi 10 km veya daha fazla
1500 ft yükseklikte az bulutlu, Kümülonimbus.
2000 ft yükseklikte parçalı bulutlu

METAR: WBGG 312000Z 12003KT 080V160 9999 FEW015CB SCT020 26/25 Q1009 NOSIG

Saat: 04:24 (20:24 UTC)

Tahmin

Rapor saat 17:00 UTC de 3 saat ve 24 dakika önce yapıldı.
Ayın 31'si saat 18 UTC'den ayın 01'si saat 18 UTC'ye kadar geçerli Tahmin
Rüzgar değişken yönden 2 kt
Görüş mesafesi 10 km veya daha fazla
2000 ft yükseklikte parçalı bulutlu

TAF: WBGG 311700Z 3118/0118 VRB02KT 9999 SCT020

4.000'den fazla havaalanı için hava durumu gözlemleri ve tahminleri (METAR ve TAF raporları).

Kullanılabilir istasyonlar harita üzerinde sarı ve kırmızı noktalarla gösterilir.

İstasyonun adını görmek için fareyi noktanın üzerinde gezdirin.

Sonrasında hava gözlem ve tahminlerini görmek için tıklayın.

Haritayı değiştirmek için: yaklaştırmak için siyah artı işaretli yeşil düğmeye ve uzaklaştırmak için de eksi işaretli düğmeye hızla tıklayın; bitişik haritalar için yeşil okları kullanın.


METAR-TAF: